Serwis meteorologiczny Szefostwa Służby Hydrometeorologicznej Sił Zbrojnych RP
Rejestracja

Wszystkie dane podawane są w czasie UTC za wyjątkiem miejsc gdzie jest jednoznacznie podane, że jest inaczej. Dane podawane w serwisie mają charakter informacyjny!!!
Informacje w sprawie dostępu do serwisu pod numerem tel. +48 261-828-559 lub +48 261-828-138
Informacja dla żołnierzy i pracowników wojska: Prosimy o niezwłoczną zmianę adresu e-mail w profilu użytkownika na pocztę w domenie @ron.mil.pl

Aktualna Pogoda
 
Pogoda w Polsce
9°C Szczecin 1°C Suwałki 0°C Warszawa 9°C Poznan
8°C Opole 7°C Kraków 4°C Rzeszów
Więcej miast w Polsce

Pogoda w Europie
10°C Berlin 11°C Paryz 10°C Bruksela 1°C Oslo
11°C Praga 8°C Zagrzeb
Więcej miast w Europie

Metary test
METAR EPBC 212000Z AUTO 00000KT CAVOK 03/01 Q1016=


 
Informacje ogólne
Ptaki - zagrożenia
Pogoda
Warszawa
Temperatura: 0.3°C
Wiatr: 0.0 m/s
Ciśnienie: 1017.1 hPa
Zjawiska: Brak
Temp. max: 9.9 °C
Temp. min: 0.3 °C


Dane astronomiczne
Warszawa:
Dzien: 12:13 h
Noc: 11:47 h



Prawa autorskie©2007 SSH SZ RP. Wszelkie prawa zastrzeżone.